Zhuozhou, China
Current Conditions -  °F | °C
As of 12:30 PM on Sunday 26 Oct 2014 (Local Time) from ZBAA Reporting Station
Clear Clear  
Wind Chill: 61°   Ceiling: Unl
Heat Index: 61°   Visibility: 6mi
Dew Point: 10°   Wind: 16mph
Humidity: 14%   Direction: 50°NE
Pressure: 30.33"   Gusts: NA
Location:  39.53°N, 115.79°E
Report Text: ZBAA 260430Z 05007MPS CAVOK 16/M12 Q1027 NOSIG
Loading
Personal Weather Stations






























Interactive Weather Map
Tropical Storm Tracking
New forecast layout! Learn more

10-Day Weather Forecast

Advertisements
Track Severe Weather on mobile